Time;durP1;ratioP1;P1;durP2;ratioP2;P2;SDS_P1;SDS_P2;PMS_P1;PMS_P2;Temp;Humidity;BMP_temperature;BMP_pressure;BME280_temperature;BME280_humidity;BME280_pressure;Samples;Min_cycle;Max_cycle;Signal;HPM_P1;HPM_P2
2022/12/05 00:01:30;;;;;;;24.35;15.77;;;4.60;99.90;;;;;;4897046;29;20082;-83
2022/12/05 00:03:58;;;;;;;25.13;16.65;;;4.60;99.90;;;;;;4896799;29;20048;-83
2022/12/05 00:06:25;;;;;;;25.63;16.95;;;4.60;99.90;;;;;;4896781;29;20071;-83
2022/12/05 00:08:51;;;;;;;25.92;16.48;;;4.60;99.90;;;;;;4896070;29;20044;-83
2022/12/05 00:11:23;;;;;;;24.38;16.13;;;4.60;99.90;;;;;;4896974;29;20046;-83
2022/12/05 00:13:50;;;;;;;24.75;15.93;;;4.70;99.90;;;;;;4896777;29;20490;-84
2022/12/05 00:16:18;;;;;;;26.25;16.10;;;4.70;99.90;;;;;;4896168;29;20044;-84
2022/12/05 00:18:44;;;;;;;25.55;16.30;;;4.70;99.90;;;;;;4897124;29;20048;-83
2022/12/05 00:21:19;;;;;;;27.73;17.25;;;4.70;99.90;;;;;;4895654;29;20480;-83
2022/12/05 00:23:45;;;;;;;25.05;15.90;;;4.70;99.90;;;;;;4898045;29;20045;-83
2022/12/05 00:26:11;;;;;;;25.08;15.45;;;4.70;99.90;;;;;;4897918;29;20099;-83
2022/12/05 00:28:37;;;;;;;24.55;15.75;;;4.70;99.90;;;;;;4896815;29;20056;-83
2022/12/05 00:31:09;;;;;;;25.42;15.95;;;4.70;99.90;;;;;;4897329;29;20049;-83
2022/12/05 00:33:35;;;;;;;28.45;16.63;;;4.70;99.90;;;;;;4896671;29;20105;-83
2022/12/05 00:36:03;;;;;;;27.98;17.58;;;4.70;99.90;;;;;;4895225;29;20060;-83
2022/12/05 00:38:29;;;;;;;25.90;15.73;;;4.80;99.90;;;;;;4895838;29;20068;-84
2022/12/05 00:40:54;;;;;;;27.67;17.33;;;4.70;99.90;;;;;;4896312;29;20493;-84
2022/12/05 00:43:20;;;;;;;25.00;15.15;;;4.70;99.90;;;;;;4895840;29;20040;-84
2022/12/05 00:45:46;;;;;;;23.92;15.65;;;4.70;99.90;;;;;;4897332;29;20036;-83
2022/12/05 00:48:11;;;;;;;25.30;15.90;;;4.70;99.90;;;;;;4895803;29;20457;-84
2022/12/05 00:50:37;;;;;;;23.48;15.55;;;4.70;99.90;;;;;;4895077;29;20059;-83
2022/12/05 00:53:02;;;;;;;24.75;14.95;;;4.80;99.90;;;;;;4895773;29;20040;-83
2022/12/05 00:55:28;;;;;;;26.70;16.00;;;4.80;99.90;;;;;;4897652;29;20401;-83
2022/12/05 00:57:53;;;;;;;24.38;15.70;;;4.80;99.90;;;;;;4895945;29;20100;-83
2022/12/05 01:00:19;;;;;;;25.25;15.48;;;4.80;99.90;;;;;;4896511;29;20492;-83
2022/12/05 01:02:45;;;;;;;23.30;15.18;;;4.80;99.90;;;;;;4896854;29;20400;-83
2022/12/05 01:05:10;;;;;;;24.67;16.23;;;4.80;99.90;;;;;;4896109;29;20408;-83
2022/12/05 01:07:36;;;;;;;26.02;16.13;;;4.80;99.90;;;;;;4897225;29;20055;-84
2022/12/05 01:10:02;;;;;;;25.73;15.95;;;4.80;99.90;;;;;;4897774;29;20048;-83
2022/12/05 01:12:27;;;;;;;24.17;15.50;;;4.80;99.90;;;;;;4899120;29;20429;-83
2022/12/05 01:14:53;;;;;;;26.90;16.95;;;4.80;99.90;;;;;;4899622;29;20055;-84
2022/12/05 01:17:19;;;;;;;23.48;15.15;;;4.80;99.90;;;;;;4900887;29;20132;-84
2022/12/05 01:19:44;;;;;;;28.13;17.15;;;4.80;99.90;;;;;;4899064;29;20048;-83
2022/12/05 01:22:10;;;;;;;26.30;16.88;;;4.80;99.90;;;;;;4900130;29;20437;-83
2022/12/05 01:24:35;;;;;;;27.20;16.58;;;4.90;99.90;;;;;;4899894;29;20040;-83
2022/12/05 01:27:01;;;;;;;24.10;15.75;;;4.90;99.90;;;;;;4899611;29;20048;-84
2022/12/05 01:29:27;;;;;;;23.30;15.63;;;4.90;99.90;;;;;;4899644;29;20060;-84
2022/12/05 01:31:53;;;;;;;26.02;16.67;;;4.90;99.90;;;;;;4899034;29;20036;-84
2022/12/05 01:34:19;;;;;;;28.10;17.15;;;4.90;99.90;;;;;;4900186;29;20169;-83
2022/12/05 01:36:45;;;;;;;27.33;16.67;;;4.90;99.90;;;;;;4897546;29;20101;-82
2022/12/05 01:39:12;;;;;;;28.58;17.55;;;4.90;99.90;;;;;;4898301;29;20056;-82
2022/12/05 01:41:44;;;;;;;27.98;17.42;;;4.90;99.90;;;;;;4899240;29;20044;-82
2022/12/05 01:44:10;;;;;;;32.13;18.02;;;5.00;99.90;;;;;;4897269;29;20048;-82
2022/12/05 01:46:38;;;;;;;28.77;17.52;;;4.90;99.90;;;;;;4897155;29;20492;-81
2022/12/05 01:49:14;;;;;;;26.63;16.65;;;5.00;99.90;;;;;;4898985;29;20060;-82
2022/12/05 01:51:44;;;;;;;29.45;17.38;;;5.00;99.90;;;;;;4899404;29;20079;-83
2022/12/05 01:54:12;;;;;;;26.60;16.13;;;5.00;99.90;;;;;;4896478;29;20656;-83
2022/12/05 01:56:40;;;;;;;28.60;16.15;;;5.00;99.90;;;;;;4898114;29;20437;-83
2022/12/05 01:59:10;;;;;;;27.80;17.17;;;5.00;99.90;;;;;;4899145;29;20045;-83
2022/12/05 02:01:36;;;;;;;30.83;18.00;;;5.00;99.90;;;;;;4896275;29;20041;-82
2022/12/05 02:04:02;;;;;;;30.70;18.60;;;5.00;99.90;;;;;;4899019;29;20406;-82
2022/12/05 02:06:29;;;;;;;26.50;16.42;;;5.00;99.90;;;;;;4898477;29;20060;-83
2022/12/05 02:08:55;;;;;;;28.92;18.10;;;5.00;99.90;;;;;;4897798;29;20131;-83
2022/12/05 02:11:23;;;;;;;30.42;18.63;;;5.00;99.90;;;;;;4898341;29;20132;-82
2022/12/05 02:14:17;;;;;;;30.10;19.02;;;5.00;99.90;;;;;;4898371;29;20123;-82
2022/12/05 02:17:11;;;;;;;28.77;18.25;;;5.10;99.90;;;;;;4898609;29;20059;-82
2022/12/05 02:20:06;;;;;;;28.48;17.63;;;5.10;99.90;;;;;;4890597;29;20511;-83
2022/12/05 02:22:41;;;;;;;33.20;18.77;;;5.10;99.90;;;;;;4897439;29;20123;-82
2022/12/05 02:25:13;;;;;;;24.70;15.85;;;5.10;99.90;;;;;;4896950;29;20412;-82
2022/12/05 02:27:56;;;;;;;28.23;16.52;;;5.10;99.90;;;;;;4898309;29;20548;-82
2022/12/05 02:30:23;;;;;;;25.05;17.10;;;5.10;99.90;;;;;;4894645;29;20505;-82
2022/12/05 02:33:03;;;;;;;28.15;16.58;;;5.10;99.90;;;;;;4892744;29;20044;-83
2022/12/05 02:35:41;;;;;;;24.95;16.27;;;5.10;99.90;;;;;;4891812;29;20056;-83
2022/12/05 02:38:45;;;;;;;28.50;16.70;;;5.10;99.90;;;;;;4898233;29;20056;-83
2022/12/05 02:41:34;;;;;;;27.60;16.55;;;5.10;99.90;;;;;;4897984;29;20059;-84
2022/12/05 02:44:19;;;;;;;27.98;16.77;;;5.10;99.90;;;;;;4897735;29;20385;-83
2022/12/05 02:46:47;;;;;;;27.23;16.05;;;5.10;99.90;;;;;;4898177;29;20044;-84
2022/12/05 02:49:17;;;;;;;26.95;16.67;;;5.10;99.90;;;;;;4897839;29;20123;-84
2022/12/05 02:51:49;;;;;;;26.23;17.33;;;5.20;99.90;;;;;;4897787;29;20048;-84
2022/12/05 02:54:21;;;;;;;25.98;15.82;;;5.20;99.90;;;;;;4898277;29;20099;-84
2022/12/05 02:56:48;;;;;;;24.83;16.05;;;5.20;99.90;;;;;;4898653;29;20044;-84
2022/12/05 02:59:14;;;;;;;25.77;16.50;;;5.20;99.90;;;;;;4897376;29;20382;-85
2022/12/05 03:01:43;;;;;;;25.00;15.77;;;5.20;99.90;;;;;;4897425;29;20058;-84
2022/12/05 03:04:11;;;;;;;24.00;14.70;;;5.20;99.90;;;;;;4897636;29;20076;-85
2022/12/05 03:06:42;;;;;;;25.13;15.65;;;5.20;99.90;;;;;;4898644;29;20032;-84
2022/12/05 03:09:36;;;;;;;25.77;16.85;;;5.20;99.90;;;;;;4897044;29;20058;-85
2022/12/05 03:12:41;;;;;;;23.35;15.82;;;5.20;99.90;;;;;;4888235;29;20059;-85
2022/12/05 03:15:13;;;;;;;23.30;14.43;;;5.20;99.90;;;;;;4822673;29;20103;-84
2022/12/05 03:17:50;;;;;;;22.70;15.07;;;5.20;99.90;;;;;;4884624;29;20489;-84
2022/12/05 03:20:28;;;;;;;23.55;14.20;;;5.20;99.90;;;;;;4897420;29;21723;-84
2022/12/05 03:23:07;;;;;;;21.63;13.85;;;5.20;99.90;;;;;;4897293;29;20072;-85
2022/12/05 03:25:45;;;;;;;19.70;13.30;;;5.20;99.90;;;;;;4896053;29;20500;-85
2022/12/05 03:28:36;;;;;;;17.77;12.25;;;5.20;99.90;;;;;;4898129;29;20036;-84
2022/12/05 03:31:07;;;;;;;18.55;11.98;;;5.20;99.90;;;;;;4883442;29;20489;-84
2022/12/05 03:33:41;;;;;;;19.25;12.55;;;5.20;99.90;;;;;;4897948;29;20434;-85
2022/12/05 03:36:11;;;;;;;17.60;11.88;;;5.30;99.90;;;;;;4896510;29;20560;-85
2022/12/05 03:38:56;;;;;;;18.63;12.55;;;5.30;99.90;;;;;;4894606;29;20172;-84
2022/12/05 03:41:27;;;;;;;19.35;12.25;;;5.30;99.90;;;;;;4878203;29;20049;-84
2022/12/05 03:44:13;;;;;;;19.58;12.35;;;5.30;99.90;;;;;;4885158;29;20473;-84
2022/12/05 03:46:45;;;;;;;16.52;11.23;;;5.30;99.90;;;;;;4896183;29;20076;-84
2022/12/05 03:49:21;;;;;;;15.93;10.32;;;5.30;99.90;;;;;;4897795;29;20049;-84
2022/12/05 03:51:56;;;;;;;17.58;11.45;;;5.30;99.90;;;;;;4897588;29;20040;-84
2022/12/05 03:54:31;;;;;;;14.77;10.55;;;5.30;99.90;;;;;;4895786;29;20044;-84
2022/12/05 03:57:21;;;;;;;14.98;10.63;;;5.30;99.90;;;;;;4896531;29;20064;-84
2022/12/05 03:59:50;;;;;;;15.57;10.23;;;5.30;99.90;;;;;;4895492;29;20433;-84
2022/12/05 04:02:24;;;;;;;16.90;11.18;;;5.30;99.90;;;;;;4896125;29;20476;-85
2022/12/05 04:04:57;;;;;;;14.90;10.70;;;5.30;99.90;;;;;;4897874;29;20104;-84
2022/12/05 04:07:24;;;;;;;14.17;9.77;;;5.30;99.90;;;;;;4895596;29;20048;-84
2022/12/05 04:09:56;;;;;;;15.60;10.25;;;5.30;99.90;;;;;;4896432;29;20053;-85
2022/12/05 04:12:26;;;;;;;13.90;9.43;;;5.30;99.90;;;;;;4897912;29;20087;-84
2022/12/05 04:15:00;;;;;;;14.32;9.60;;;5.30;99.90;;;;;;4895734;29;20052;-84
2022/12/05 04:17:45;;;;;;;14.57;10.07;;;5.30;99.90;;;;;;4896065;29;20162;-85
2022/12/05 04:23:01;;;;;;;13.52;8.95;;;5.40;99.90;;;;;;4896879;29;20075;-83
2022/12/05 04:25:36;;;;;;;12.15;8.50;;;5.40;99.90;;;;;;4896163;29;20048;-84
2022/12/05 04:28:38;;;;;;;12.50;9.10;;;5.40;99.90;;;;;;4895799;29;20052;-84
2022/12/05 04:31:08;;;;;;;11.02;7.75;;;5.40;99.90;;;;;;4896338;29;20082;-84
2022/12/05 04:33:45;;;;;;;13.40;8.93;;;5.40;99.90;;;;;;4896642;29;20048;-84
2022/12/05 04:36:10;;;;;;;13.10;8.70;;;5.40;99.90;;;;;;4895975;29;20512;-83
2022/12/05 04:38:45;;;;;;;14.75;8.75;;;5.40;99.90;;;;;;4896550;29;20052;-84
2022/12/05 04:41:16;;;;;;;11.73;8.35;;;5.40;99.90;;;;;;4897113;29;20056;-84
2022/12/05 04:43:44;;;;;;;11.73;7.72;;;5.40;99.90;;;;;;4895658;29;20131;-84
2022/12/05 04:46:13;;;;;;;11.82;8.05;;;5.40;99.90;;;;;;4900814;29;20045;-85
2022/12/05 04:48:42;;;;;;;11.73;8.40;;;5.40;99.90;;;;;;4900707;29;20048;-84
2022/12/05 04:51:13;;;;;;;11.45;8.13;;;5.40;99.90;;;;;;4899208;29;20500;-85
2022/12/05 04:53:41;;;;;;;11.23;7.70;;;5.40;99.90;;;;;;4899784;29;20131;-84
2022/12/05 04:56:10;;;;;;;10.27;6.68;;;5.40;99.90;;;;;;4899588;29;20041;-85
2022/12/05 04:58:36;;;;;;;10.27;7.20;;;5.40;99.90;;;;;;4899887;29;20469;-85
2022/12/05 05:01:16;;;;;;;10.93;7.22;;;5.40;99.90;;;;;;4900620;29;20177;-85
2022/12/05 05:03:57;;;;;;;9.70;6.50;;;5.40;99.90;;;;;;4899180;29;20052;-85
2022/12/05 05:06:23;;;;;;;10.43;6.80;;;5.40;99.90;;;;;;4899272;29;20041;-85
2022/12/05 05:08:54;;;;;;;8.55;5.75;;;5.50;99.90;;;;;;4899186;29;20116;-85
2022/12/05 05:11:23;;;;;;;8.88;6.15;;;5.50;99.90;;;;;;4900233;29;20053;-85
2022/12/05 05:13:49;;;;;;;9.02;6.20;;;5.50;99.90;;;;;;4899469;29;20075;-85
2022/12/05 05:16:27;;;;;;;10.27;6.22;;;5.50;99.90;;;;;;4899322;29;20055;-84
2022/12/05 05:18:53;;;;;;;8.95;5.65;;;5.50;99.90;;;;;;4899152;29;20097;-84
2022/12/05 05:21:31;;;;;;;9.95;5.50;;;5.50;99.90;;;;;;4900887;29;20045;-85
2022/12/05 05:23:57;;;;;;;9.27;5.90;;;5.50;99.90;;;;;;4899810;29;20041;-84
2022/12/05 05:26:24;;;;;;;8.23;5.85;;;5.50;99.90;;;;;;4900344;29;20041;-83
2022/12/05 05:28:50;;;;;;;8.55;5.50;;;5.50;99.90;;;;;;4899118;29;20048;-84
2022/12/05 05:31:18;;;;;;;8.02;5.25;;;5.50;99.90;;;;;;4898722;29;20052;-84
2022/12/05 05:33:43;;;;;;;7.95;5.30;;;5.50;99.90;;;;;;4900307;29;20485;-85
2022/12/05 05:36:13;;;;;;;7.03;4.80;;;5.50;99.90;;;;;;4898858;29;20091;-84
2022/12/05 05:38:41;;;;;;;7.70;5.15;;;5.50;99.90;;;;;;4898788;29;20049;-84
2022/12/05 05:41:12;;;;;;;7.85;4.93;;;5.50;99.90;;;;;;4900627;29;20152;-85
2022/12/05 05:43:39;;;;;;;7.30;4.80;;;5.50;99.90;;;;;;4899528;29;20082;-87
2022/12/05 05:46:05;;;;;;;8.15;4.97;;;5.50;99.90;;;;;;4898618;29;20045;-87
2022/12/05 05:48:30;;;;;;;7.30;4.50;;;5.60;99.90;;;;;;4900447;29;20052;-87
2022/12/05 05:51:03;;;;;;;8.82;5.15;;;5.60;99.90;;;;;;4898869;29;20051;-87
2022/12/05 05:53:29;;;;;;;7.03;4.60;;;5.60;99.90;;;;;;4897929;29;20048;-87
2022/12/05 05:55:54;;;;;;;9.52;5.20;;;5.50;99.90;;;;;;4900165;29;20080;-87
2022/12/05 05:58:20;;;;;;;6.85;4.45;;;5.60;99.90;;;;;;4900497;29;20055;-87
2022/12/05 06:00:46;;;;;;;6.95;4.60;;;5.60;99.90;;;;;;4897969;29;20392;-87
2022/12/05 06:03:11;;;;;;;7.85;4.45;;;5.60;99.90;;;;;;4898625;29;20083;-86
2022/12/05 06:05:37;;;;;;;6.93;4.30;;;5.60;99.90;;;;;;4899416;29;20438;-86
2022/12/05 06:08:03;;;;;;;6.05;4.07;;;5.60;99.90;;;;;;4897726;29;20121;-87
2022/12/05 06:10:29;;;;;;;7.53;4.75;;;5.60;99.90;;;;;;4898394;29;20052;-88
2022/12/05 06:12:55;;;;;;;7.05;4.60;;;5.60;99.90;;;;;;4899562;29;20072;-88
2022/12/05 06:15:22;;;;;;;7.47;4.57;;;5.60;99.90;;;;;;4898582;29;20041;-87
2022/12/05 06:17:47;;;;;;;7.78;4.55;;;5.60;99.90;;;;;;4899189;29;20103;-88
2022/12/05 06:20:13;;;;;;;7.78;4.68;;;5.60;99.90;;;;;;4886864;29;20049;-88
2022/12/05 06:22:38;;;;;;;6.88;4.38;;;5.60;99.90;;;;;;4899499;29;20041;-90
2022/12/05 06:25:05;;;;;;;6.55;4.40;;;5.60;99.90;;;;;;4896642;29;20052;-91
2022/12/05 06:27:31;;;;;;;7.00;4.60;;;5.60;99.90;;;;;;4899719;29;20044;-94
2022/12/05 06:30:13;;;;;;;7.40;4.43;;;5.60;99.90;;;;;;4899020;29;20055;-96
2022/12/05 06:32:39;;;;;;;8.75;4.95;;;5.60;99.90;;;;;;4915167;29;20063;-95
2022/12/05 06:35:13;;;;;;;7.10;4.57;;;5.70;99.90;;;;;;4897738;29;20488;-88
2022/12/05 06:37:39;;;;;;;7.00;4.25;;;5.60;99.90;;;;;;4899544;29;20056;-88
2022/12/05 06:40:06;;;;;;;7.82;4.60;;;5.70;99.90;;;;;;4913452;29;20057;-88
2022/12/05 06:42:31;;;;;;;6.88;4.40;;;5.60;99.90;;;;;;4896969;29;20049;-92
2022/12/05 06:44:57;;;;;;;8.98;5.07;;;5.60;99.90;;;;;;4898081;29;20044;-85
2022/12/05 06:47:22;;;;;;;7.93;4.53;;;5.60;99.90;;;;;;4897140;29;20037;-87
2022/12/05 06:49:48;;;;;;;7.47;4.95;;;5.60;99.90;;;;;;4897164;29;20412;-86
2022/12/05 06:52:14;;;;;;;7.70;4.72;;;5.60;99.90;;;;;;4897256;29;20051;-86
2022/12/05 06:54:39;;;;;;;6.28;3.97;;;5.60;99.90;;;;;;4897175;29;20099;-86
2022/12/05 06:57:05;;;;;;;6.05;4.00;;;5.60;99.90;;;;;;4897092;29;20040;-87
2022/12/05 06:59:30;;;;;;;7.40;4.38;;;5.60;99.90;;;;;;4897708;29;20051;-86
2022/12/05 07:01:56;;;;;;;7.75;4.75;;;5.60;99.90;;;;;;4897858;29;20048;-86
2022/12/05 07:04:23;;;;;;;7.55;4.70;;;5.70;99.90;;;;;;4898294;29;20045;-86
2022/12/05 07:06:50;;;;;;;6.50;4.00;;;5.70;99.90;;;;;;4898246;29;20072;-86
2022/12/05 07:09:17;;;;;;;8.13;4.70;;;5.60;99.90;;;;;;4897148;29;20511;-87
2022/12/05 07:11:49;;;;;;;7.15;4.40;;;5.70;99.90;;;;;;4898181;29;20647;-87
2022/12/05 07:14:16;;;;;;;7.25;4.50;;;5.70;99.90;;;;;;4896747;29;20045;-87
2022/12/05 07:16:42;;;;;;;8.27;4.97;;;5.70;99.90;;;;;;4897567;29;20093;-86
2022/12/05 07:19:09;;;;;;;7.13;4.30;;;5.70;99.90;;;;;;4896492;29;20539;-86
2022/12/05 07:21:35;;;;;;;8.23;4.97;;;5.70;99.90;;;;;;4895743;29;20040;-85
2022/12/05 07:24:00;;;;;;;8.43;4.82;;;5.70;99.90;;;;;;4897170;29;20526;-86
2022/12/05 07:26:26;;;;;;;7.82;4.30;;;5.70;99.90;;;;;;4897141;29;20440;-86
2022/12/05 07:28:55;;;;;;;10.20;4.90;;;5.70;99.90;;;;;;4896845;29;20445;-88
2022/12/05 07:31:40;;;;;;;6.75;4.35;;;5.70;99.90;;;;;;4897434;29;20050;-90
2022/12/05 07:34:06;;;;;;;7.47;4.32;;;5.70;99.90;;;;;;4895797;29;20053;-87
2022/12/05 07:36:31;;;;;;;7.40;4.50;;;5.70;99.90;;;;;;4896801;29;20056;-87
2022/12/05 07:38:57;;;;;;;9.23;5.25;;;5.70;99.90;;;;;;4895883;29;20093;-87
2022/12/05 07:41:31;;;;;;;7.63;5.00;;;5.70;99.90;;;;;;4897062;29;20055;-87
2022/12/05 07:43:59;;;;;;;7.60;4.95;;;5.70;99.90;;;;;;4897337;29;20087;-86
2022/12/05 07:46:25;;;;;;;8.15;4.65;;;5.70;99.90;;;;;;4894740;29;20053;-88
2022/12/05 07:48:51;;;;;;;9.75;5.20;;;5.70;99.90;;;;;;4896541;29;20060;-86
2022/12/05 07:51:18;;;;;;;8.93;5.25;;;5.70;99.90;;;;;;4896502;29;20159;-86
2022/12/05 07:53:45;;;;;;;9.48;5.43;;;5.70;99.90;;;;;;4896851;29;20053;-86
2022/12/05 07:56:15;;;;;;;8.57;4.57;;;5.70;99.90;;;;;;4897623;29;20045;-86
2022/12/05 07:58:42;;;;;;;9.20;5.25;;;5.70;99.90;;;;;;4896131;29;20504;-86
2022/12/05 08:01:10;;;;;;;8.75;5.00;;;5.80;99.90;;;;;;4896658;29;20060;-84
2022/12/05 08:03:37;;;;;;;9.65;5.15;;;5.80;99.90;;;;;;4897172;29;20044;-84
2022/12/05 08:06:04;;;;;;;10.00;6.25;;;5.70;99.90;;;;;;4894712;29;20127;-84
2022/12/05 08:08:30;;;;;;;9.60;5.43;;;5.70;99.90;;;;;;4897916;29;20072;-88
2022/12/05 08:10:55;;;;;;;10.27;5.78;;;5.70;99.90;;;;;;4896729;29;20717;-85
2022/12/05 08:13:21;;;;;;;11.02;6.07;;;5.70;99.90;;;;;;4895262;29;20041;-85
2022/12/05 08:15:47;;;;;;;10.02;5.78;;;5.80;99.90;;;;;;4898093;29;20413;-84
2022/12/05 08:18:12;;;;;;;11.07;5.55;;;5.70;99.90;;;;;;4896593;29;20437;-85
2022/12/05 08:20:38;;;;;;;10.50;5.60;;;5.80;99.90;;;;;;4896738;29;20068;-85
2022/12/05 08:23:03;;;;;;;10.60;5.82;;;5.80;99.90;;;;;;4897472;29;20040;-86
2022/12/05 08:25:29;;;;;;;10.77;6.32;;;5.80;99.90;;;;;;4892322;29;20049;-86
2022/12/05 08:27:55;;;;;;;11.55;6.72;;;5.80;99.90;;;;;;4878470;29;20128;-86
2022/12/05 08:30:20;;;;;;;14.30;5.95;;;5.80;99.90;;;;;;4892916;29;20124;-86
2022/12/05 08:32:46;;;;;;;12.15;6.10;;;5.80;99.90;;;;;;4885711;29;20047;-86
2022/12/05 08:35:12;;;;;;;11.48;5.35;;;5.80;99.90;;;;;;4889885;29;20060;-87
2022/12/05 08:37:37;;;;;;;8.70;5.30;;;5.80;99.90;;;;;;4897529;29;20532;-87
2022/12/05 08:40:04;;;;;;;12.73;7.45;;;5.80;99.90;;;;;;4895501;29;20048;-86
2022/12/05 08:42:30;;;;;;;11.15;5.95;;;5.70;99.90;;;;;;4895147;29;20504;-86
2022/12/05 08:44:55;;;;;;;13.00;6.03;;;5.80;99.90;;;;;;4896300;29;20403;-86
2022/12/05 08:47:21;;;;;;;12.15;6.45;;;5.80;99.90;;;;;;4896102;29;20045;-86
2022/12/05 08:49:47;;;;;;;11.00;6.68;;;5.80;99.90;;;;;;4887256;29;20524;-85
2022/12/05 08:52:13;;;;;;;11.82;5.97;;;5.80;99.90;;;;;;4896125;29;20064;-84
2022/12/05 08:54:38;;;;;;;14.43;7.35;;;5.80;99.90;;;;;;4891858;29;20040;-84
2022/12/05 08:57:04;;;;;;;13.35;6.68;;;5.80;99.90;;;;;;4896329;29;20045;-85
2022/12/05 08:59:29;;;;;;;17.80;7.32;;;5.80;99.90;;;;;;4895647;29;20049;-85
2022/12/05 09:01:55;;;;;;;11.27;6.45;;;5.80;99.90;;;;;;4896269;29;20473;-86
2022/12/05 09:04:20;;;;;;;11.75;6.22;;;5.80;99.90;;;;;;4895564;29;20124;-84
2022/12/05 09:06:46;;;;;;;10.25;6.07;;;5.80;99.90;;;;;;4896994;29;20092;-84
2022/12/05 09:09:12;;;;;;;11.23;5.50;;;5.80;99.90;;;;;;4894895;29;20536;-84
2022/12/05 09:11:45;;;;;;;12.05;7.22;;;5.80;99.90;;;;;;4895568;29;20067;-84
2022/12/05 09:14:11;;;;;;;11.82;6.15;;;5.80;99.90;;;;;;4879292;29;20045;-84
2022/12/05 09:16:38;;;;;;;9.60;5.60;;;5.80;99.90;;;;;;4894434;29;20096;-84
2022/12/05 09:19:04;;;;;;;11.40;6.35;;;5.80;99.90;;;;;;4895734;29;20089;-84
2022/12/05 09:21:32;;;;;;;12.07;6.95;;;5.80;99.90;;;;;;4892459;29;20492;-84
2022/12/05 09:23:59;;;;;;;9.82;6.00;;;5.80;99.90;;;;;;4894229;29;20044;-85
2022/12/05 09:26:26;;;;;;;11.35;5.97;;;5.80;99.90;;;;;;4895600;29;20378;-85
2022/12/05 09:28:52;;;;;;;13.32;6.80;;;5.80;99.90;;;;;;4897332;29;20033;-84
2022/12/05 09:31:20;;;;;;;10.35;6.32;;;5.80;99.90;;;;;;4894985;29;20045;-85
2022/12/05 09:33:47;;;;;;;10.15;6.00;;;5.80;99.90;;;;;;4899493;29;20096;-84
2022/12/05 09:36:18;;;;;;;11.63;6.47;;;5.80;99.90;;;;;;4899322;29;20044;-84
2022/12/05 09:38:45;;;;;;;11.27;6.15;;;5.80;99.90;;;;;;4899553;29;20246;-84
2022/12/05 09:44:28;;;;;;;12.10;6.72;;;5.80;99.90;;;;;;4884758;29;20044;-85
2022/12/05 09:47:00;;;;;;;11.82;6.40;;;5.80;99.90;;;;;;4898493;29;20052;-84
2022/12/05 09:49:27;;;;;;;11.77;6.38;;;5.80;99.90;;;;;;4899428;29;20488;-85
2022/12/05 09:51:55;;;;;;;11.38;6.60;;;5.80;99.90;;;;;;4898659;29;20543;-85
2022/12/05 09:54:22;;;;;;;9.88;5.85;;;5.80;99.90;;;;;;4897677;29;20119;-85
2022/12/05 09:56:50;;;;;;;14.15;7.53;;;5.80;99.90;;;;;;4898448;29;20467;-84
2022/12/05 09:59:19;;;;;;;10.95;6.88;;;5.80;99.90;;;;;;4888007;29;20504;-84
2022/12/05 10:01:53;;;;;;;12.00;6.20;;;5.80;99.90;;;;;;4898466;29;20048;-85
2022/12/05 10:04:32;;;;;;;10.73;6.43;;;5.90;99.90;;;;;;4903671;29;20057;-85
2022/12/05 10:07:00;;;;;;;12.68;7.10;;;5.80;99.90;;;;;;4897032;29;20059;-84
2022/12/05 10:09:35;;;;;;;11.38;6.65;;;5.80;99.90;;;;;;4903820;29;20049;-83
2022/12/05 10:12:09;;;;;;;12.07;6.72;;;5.80;99.90;;;;;;4888719;29;20433;-83
2022/12/05 10:14:55;;;;;;;9.88;6.10;;;5.90;99.90;;;;;;4890766;29;20045;-83
2022/12/05 10:17:32;;;;;;;10.73;6.30;;;5.90;99.90;;;;;;4892951;29;20072;-83
2022/12/05 10:20:09;;;;;;;9.95;6.38;;;5.80;99.90;;;;;;4886656;29;20088;-83
2022/12/05 10:22:43;;;;;;;10.65;6.63;;;5.90;99.90;;;;;;4913582;29;20052;-84
2022/12/05 10:25:13;;;;;;;10.20;6.43;;;5.80;99.90;;;;;;4896188;29;20056;-84
2022/12/05 10:27:53;;;;;;;12.60;6.30;;;5.80;99.90;;;;;;4898574;29;20079;-83
2022/12/05 10:30:24;;;;;;;11.45;6.40;;;5.80;99.90;;;;;;4898282;29;20044;-85
2022/12/05 10:33:19;;;;;;;11.77;6.22;;;5.80;99.90;;;;;;4899389;29;20032;-85
2022/12/05 10:35:45;;;;;;;11.18;6.43;;;5.80;99.90;;;;;;4891733;29;20056;-84
2022/12/05 10:38:24;;;;;;;10.95;6.38;;;5.80;99.90;;;;;;4887235;29;20060;-84
2022/12/05 10:40:53;;;;;;;11.02;6.30;;;5.90;99.90;;;;;;4887607;29;20123;-84
2022/12/05 10:43:26;;;;;;;11.40;6.60;;;5.90;99.90;;;;;;4898024;29;20142;-84
2022/12/05 10:45:52;;;;;;;9.55;6.10;;;5.90;99.90;;;;;;4894613;29;20040;-84
2022/12/05 10:48:20;;;;;;;10.75;5.88;;;5.90;99.90;;;;;;4894489;29;20408;-84
2022/12/05 10:50:52;;;;;;;10.73;6.18;;;5.90;99.90;;;;;;4888479;29;20076;-84
2022/12/05 10:53:28;;;;;;;10.77;6.07;;;5.90;99.90;;;;;;4904790;29;20048;-85
2022/12/05 10:55:54;;;;;;;13.23;6.20;;;5.90;99.90;;;;;;4897448;29;20045;-83
2022/12/05 10:58:25;;;;;;;11.27;5.50;;;5.90;99.90;;;;;;4898479;29;20135;-84
2022/12/05 11:01:17;;;;;;;10.90;5.65;;;5.90;99.90;;;;;;4898798;29;20042;-84
2022/12/05 11:03:42;;;;;;;12.10;5.82;;;5.90;99.90;;;;;;4893017;29;20052;-84
2022/12/05 11:06:17;;;;;;;10.55;6.20;;;5.90;99.90;;;;;;4899547;29;20092;-83
2022/12/05 11:08:55;;;;;;;9.75;5.90;;;5.90;99.90;;;;;;4891787;29;20480;-86
2022/12/05 11:11:32;;;;;;;10.95;6.07;;;5.90;99.90;;;;;;4897645;29;20496;-85
2022/12/05 11:14:08;;;;;;;10.98;5.78;;;5.90;99.90;;;;;;4896053;29;20045;-84
2022/12/05 11:16:37;;;;;;;12.02;6.35;;;5.90;99.90;;;;;;4895735;29;20036;-84
2022/12/05 11:19:18;;;;;;;10.27;6.15;;;5.90;99.90;;;;;;4894868;29;20497;-84
2022/12/05 11:21:43;;;;;;;13.73;6.30;;;5.90;99.90;;;;;;4896643;29;20504;-85
2022/12/05 11:24:21;;;;;;;11.90;6.90;;;5.90;99.90;;;;;;4894612;29;20062;-85
2022/12/05 11:26:46;;;;;;;9.95;5.60;;;5.90;99.90;;;;;;4895711;29;20044;-85
2022/12/05 11:29:34;;;;;;;9.75;5.75;;;5.90;99.90;;;;;;4896482;29;20044;-85
2022/12/05 11:32:01;;;;;;;11.82;5.72;;;5.90;99.90;;;;;;4893149;29;20052;-85
2022/12/05 11:34:50;;;;;;;10.50;6.68;;;5.90;99.90;;;;;;4894191;29;20551;-84
2022/12/05 11:37:28;;;;;;;10.30;5.78;;;5.90;99.90;;;;;;4889394;29;20049;-85
2022/12/05 11:39:54;;;;;;;9.05;5.50;;;5.90;99.90;;;;;;4897502;29;20054;-85
2022/12/05 11:42:32;;;;;;;10.02;5.75;;;5.90;99.90;;;;;;4892517;29;20511;-84
2022/12/05 11:45:17;;;;;;;9.95;5.80;;;5.90;99.90;;;;;;4897968;29;20049;-84
2022/12/05 11:47:57;;;;;;;10.98;5.65;;;5.90;99.90;;;;;;4896184;29;20036;-86
2022/12/05 11:50:47;;;;;;;10.75;6.55;;;5.90;99.90;;;;;;4888537;29;20306;-92
2022/12/05 11:53:28;;;;;;;9.07;5.65;;;5.90;99.90;;;;;;4894419;29;20057;-95
2022/12/05 11:56:13;;;;;;;10.73;5.80;;;5.90;99.90;;;;;;4898717;29;20153;-85
2022/12/05 11:59:09;;;;;;;10.30;5.93;;;6.00;99.90;;;;;;4889537;29;20082;-85
2022/12/05 12:02:00;;;;;;;8.93;5.07;;;6.00;99.90;;;;;;4868907;29;20449;-86
2022/12/05 12:04:41;;;;;;;10.65;5.38;;;6.00;99.90;;;;;;4893523;29;20484;-84
2022/12/05 12:07:29;;;;;;;9.10;5.47;;;6.00;99.90;;;;;;4894325;29;20044;-84
2022/12/05 12:10:09;;;;;;;9.52;5.40;;;6.00;99.90;;;;;;4898433;29;20088;-83
2022/12/05 12:13:04;;;;;;;9.65;5.20;;;6.00;99.90;;;;;;4892776;29;20092;-83
2022/12/05 12:16:05;;;;;;;10.43;5.55;;;6.00;99.90;;;;;;4917919;23;20048;-84
2022/12/05 12:19:14;;;;;;;8.65;5.35;;;6.00;99.90;;;;;;4900990;29;20515;-84
2022/12/05 12:22:01;;;;;;;10.52;5.30;;;6.00;99.90;;;;;;4915029;29;20051;-83
2022/12/05 12:24:46;;;;;;;10.48;5.47;;;6.00;99.90;;;;;;4901413;29;20049;-84
2022/12/05 12:27:25;;;;;;;9.18;5.20;;;6.00;99.90;;;;;;4911983;29;20845;-84
2022/12/05 12:29:54;;;;;;;9.90;5.53;;;6.00;99.90;;;;;;4907047;29;20071;-84
2022/12/05 12:32:38;;;;;;;7.55;4.95;;;6.00;99.90;;;;;;4905196;29;20040;-84
2022/12/05 12:35:16;;;;;;;8.35;4.82;;;6.00;99.90;;;;;;4905811;29;20086;-84
2022/12/05 12:37:45;;;;;;;10.48;4.90;;;6.00;99.90;;;;;;4914037;29;20044;-84
2022/12/05 12:40:21;;;;;;;8.50;4.72;;;6.00;99.90;;;;;;4904636;29;20046;-84
2022/12/05 12:43:09;;;;;;;10.25;5.28;;;6.00;99.90;;;;;;4908327;29;20365;-84
2022/12/05 12:45:49;;;;;;;10.35;5.03;;;6.10;99.90;;;;;;4912786;29;20043;-84
2022/12/05 12:49:07;;;;;;;8.70;4.55;;;6.00;99.90;;;;;;4911247;29;20036;-84
2022/12/05 12:51:33;;;;;;;10.18;4.60;;;6.00;99.90;;;;;;4873855;29;20496;-84
2022/12/05 12:54:28;;;;;;;6.88;4.15;;;6.00;99.90;;;;;;4915064;29;20498;-84
2022/12/05 12:57:08;;;;;;;9.27;4.90;;;6.10;99.90;;;;;;4857696;29;20053;-84
2022/12/05 12:59:57;;;;;;;9.20;4.65;;;6.00;99.90;;;;;;4905253;29;20489;-85
2022/12/05 13:02:46;;;;;;;7.93;4.75;;;6.00;99.90;;;;;;4904725;29;20044;-85
2022/12/05 13:05:35;;;;;;;10.23;4.82;;;6.10;99.90;;;;;;4915963;29;20404;-85
2022/12/05 13:08:22;;;;;;;8.93;4.63;;;6.00;99.90;;;;;;4916449;29;20092;-84
2022/12/05 13:10:48;;;;;;;8.23;4.65;;;6.00;99.90;;;;;;4916863;29;20096;-85
2022/12/05 13:13:22;;;;;;;7.85;4.63;;;6.00;99.90;;;;;;4917655;29;20052;-84
2022/12/05 13:15:57;;;;;;;6.82;4.28;;;6.10;99.90;;;;;;4916221;29;20075;-84
2022/12/05 13:18:24;;;;;;;7.93;4.15;;;6.10;99.90;;;;;;4916941;29;20477;-85